createdAt,value
2018-05-16T00:00:14.873Z,1005.04
2018-05-16T00:02:07.710Z,1005.00
2018-05-16T00:03:07.649Z,1005.03
2018-05-16T00:05:00.650Z,1005.01
2018-05-16T00:06:00.716Z,1005.03
2018-05-16T00:07:53.443Z,1005.00
2018-05-16T00:08:53.395Z,1004.98
2018-05-16T00:10:46.225Z,1005.05
2018-05-16T00:11:46.204Z,1005.04
2018-05-16T00:13:39.146Z,1005.06
2018-05-16T00:14:38.989Z,1005.06
2018-05-16T00:16:31.990Z,1005.07
2018-05-16T00:17:31.912Z,1005.02
2018-05-16T00:19:24.915Z,1005.02
2018-05-16T00:20:24.861Z,1005.06
2018-05-16T00:22:17.734Z,1005.10
2018-05-16T00:23:17.677Z,1005.10
2018-05-16T00:25:10.660Z,1005.11
2018-05-16T00:26:10.655Z,1005.07
2018-05-16T00:28:03.606Z,1005.07
2018-05-16T00:29:03.564Z,1005.08
2018-05-16T00:30:56.792Z,1005.07
2018-05-16T00:31:56.751Z,1005.09
2018-05-16T00:33:49.740Z,1005.11
2018-05-16T00:34:49.695Z,1005.11
2018-05-16T00:36:42.502Z,1005.09
2018-05-16T00:37:42.490Z,1005.09
2018-05-16T00:39:35.296Z,1005.03
2018-05-16T00:40:35.254Z,1005.05
2018-05-16T00:42:28.131Z,1005.02
2018-05-16T00:43:28.080Z,1004.98
2018-05-16T00:45:20.982Z,1004.96
2018-05-16T00:46:20.865Z,1005.01
2018-05-16T00:48:13.861Z,1005.00
2018-05-16T00:49:14.004Z,1005.01
2018-05-16T00:51:07.080Z,1005.02
2018-05-16T00:52:07.020Z,1005.01
2018-05-16T00:53:59.992Z,1005.00
2018-05-16T00:54:59.961Z,1005.04
2018-05-16T00:56:52.950Z,1005.02
2018-05-16T00:57:52.897Z,1005.02
2018-05-16T00:59:45.752Z,1005.01
2018-05-16T01:00:45.699Z,1005.02
2018-05-16T01:02:38.708Z,1005.07
2018-05-16T01:03:38.659Z,1005.03
2018-05-16T01:05:31.700Z,1005.04
2018-05-16T01:06:31.718Z,1005.08
2018-05-16T01:08:24.899Z,1005.04
2018-05-16T01:09:24.765Z,1005.04
2018-05-16T01:11:17.782Z,1005.05
2018-05-16T01:12:17.728Z,1005.05
2018-05-16T01:14:10.758Z,1005.06
2018-05-16T01:15:10.708Z,1005.03
2018-05-16T01:17:03.532Z,1004.98
2018-05-16T01:18:03.486Z,1005.01
2018-05-16T01:19:56.500Z,1004.96
2018-05-16T01:20:56.420Z,1004.99
2018-05-16T01:22:49.232Z,1004.98
2018-05-16T01:23:49.200Z,1004.98
2018-05-16T01:25:42.046Z,1004.99
2018-05-16T01:26:42.037Z,1004.99
2018-05-16T01:28:35.263Z,1005.01
2018-05-16T01:29:35.138Z,1005.02
2018-05-16T01:31:28.101Z,1005.10
2018-05-16T01:32:28.058Z,1005.12
2018-05-16T01:34:21.076Z,1005.15
2018-05-16T01:35:21.017Z,1005.17
2018-05-16T01:37:14.098Z,1005.19
2018-05-16T01:38:13.887Z,1005.13
2018-05-16T01:40:07.020Z,1005.13
2018-05-16T01:41:06.830Z,1005.16
2018-05-16T01:42:59.823Z,1005.16
2018-05-16T01:43:59.799Z,1005.22
2018-05-16T01:45:52.646Z,1005.28
2018-05-16T01:46:52.589Z,1005.29
2018-05-16T01:48:45.525Z,1005.29
2018-05-16T01:49:45.405Z,1005.34
2018-05-16T01:51:38.227Z,1005.54
2018-05-16T01:52:38.178Z,1005.56
2018-05-16T01:54:31.168Z,1005.64
2018-05-16T01:55:31.121Z,1005.57
2018-05-16T01:57:24.292Z,1005.70
2018-05-16T01:58:24.211Z,1005.71
2018-05-16T02:00:17.384Z,1005.67
2018-05-16T02:01:17.452Z,1005.65
2018-05-16T02:03:10.161Z,1005.73
2018-05-16T02:04:10.111Z,1005.75
2018-05-16T02:06:03.304Z,1005.74
2018-05-16T02:07:03.261Z,1005.80
2018-05-16T02:08:56.225Z,1005.86
2018-05-16T02:09:56.206Z,1005.93
2018-05-16T02:11:49.541Z,1005.93
2018-05-16T02:12:49.356Z,1005.94
2018-05-16T02:14:42.344Z,1005.88
2018-05-16T02:15:42.317Z,1005.88
2018-05-16T02:17:35.140Z,1005.97
2018-05-16T02:18:35.081Z,1005.99
2018-05-16T02:20:27.899Z,1006.02
2018-05-16T02:21:27.863Z,1006.07
2018-05-16T02:23:20.981Z,1006.09
2018-05-16T02:24:20.844Z,1006.10
2018-05-16T02:26:13.653Z,1006.09
2018-05-16T02:27:13.552Z,1006.08
2018-05-16T02:29:06.526Z,1006.10
2018-05-16T02:30:06.496Z,1006.12
2018-05-16T02:31:59.468Z,1006.07
2018-05-16T02:32:59.432Z,1006.01
2018-05-16T02:34:52.373Z,1006.00
2018-05-16T02:35:52.277Z,1005.92
2018-05-16T02:37:45.278Z,1005.85
2018-05-16T02:38:45.230Z,1005.78
2018-05-16T02:40:38.513Z,1005.78
2018-05-16T02:41:38.173Z,1005.80
2018-05-16T02:43:31.367Z,1005.75
2018-05-16T02:44:31.279Z,1005.71
2018-05-16T02:46:24.239Z,1005.66
2018-05-16T02:47:24.206Z,1005.66
2018-05-16T02:49:17.564Z,1005.72
2018-05-16T02:50:17.374Z,1005.77
2018-05-16T02:52:10.391Z,1005.69
2018-05-16T02:53:10.341Z,1005.64
2018-05-16T02:55:03.351Z,1005.57
2018-05-16T02:56:03.314Z,1005.55
2018-05-16T02:57:56.245Z,1005.57
2018-05-16T02:58:56.190Z,1005.61
2018-05-16T03:00:49.171Z,1005.65
2018-05-16T03:01:49.144Z,1005.65
2018-05-16T03:03:42.147Z,1005.62
2018-05-16T03:04:42.148Z,1005.57
2018-05-16T03:06:35.303Z,1005.47
2018-05-16T03:07:35.238Z,1005.42
2018-05-16T03:09:28.219Z,1005.46
2018-05-16T03:10:28.328Z,1005.46
2018-05-16T03:12:21.467Z,1005.49
2018-05-16T03:13:21.349Z,1005.49
2018-05-16T03:15:14.180Z,1005.56
2018-05-16T03:16:14.137Z,1005.54
2018-05-16T03:18:07.128Z,1005.54
2018-05-16T03:19:07.177Z,1005.55
2018-05-16T03:21:00.312Z,1005.51
2018-05-16T03:22:00.241Z,1005.50
2018-05-16T03:23:53.213Z,1005.53
2018-05-16T03:24:53.174Z,1005.50
2018-05-16T03:26:46.172Z,1005.50
2018-05-16T03:27:46.118Z,1005.50
2018-05-16T03:29:39.220Z,1005.48
2018-05-16T03:30:38.975Z,1005.50
2018-05-16T03:32:31.994Z,1005.51
2018-05-16T03:33:31.923Z,1005.51
2018-05-16T03:35:24.778Z,1005.53
2018-05-16T03:36:24.715Z,1005.54
2018-05-16T03:38:17.694Z,1005.52
2018-05-16T03:39:17.653Z,1005.53
2018-05-16T03:41:10.708Z,1005.54
2018-05-16T03:42:10.633Z,1005.55
2018-05-16T03:44:03.639Z,1005.54
2018-05-16T03:45:03.593Z,1005.54
2018-05-16T03:46:56.730Z,1005.54
2018-05-16T03:47:56.693Z,1005.56
2018-05-16T03:49:49.682Z,1005.58
2018-05-16T03:50:49.643Z,1005.62
2018-05-16T03:52:42.644Z,1005.60
2018-05-16T03:53:42.592Z,1005.61
2018-05-16T03:55:35.807Z,1005.62
2018-05-16T03:56:35.741Z,1005.60
2018-05-16T03:58:28.764Z,1005.65
2018-05-16T03:59:28.703Z,1005.65
2018-05-16T04:01:22.003Z,1005.66
2018-05-16T04:02:21.961Z,1005.61
2018-05-16T04:04:14.669Z,1005.54
2018-05-16T04:05:14.640Z,1005.54
2018-05-16T04:07:07.645Z,1005.60
2018-05-16T04:08:07.590Z,1005.63
2018-05-16T04:10:00.824Z,1005.65
2018-05-16T04:11:00.718Z,1005.63
2018-05-16T04:12:53.698Z,1005.66
2018-05-16T04:13:53.645Z,1005.67
2018-05-16T04:15:46.669Z,1005.72
2018-05-16T04:16:46.624Z,1005.71
2018-05-16T04:18:39.743Z,1005.74
2018-05-16T04:19:39.690Z,1005.72
2018-05-16T04:21:32.671Z,1005.77
2018-05-16T04:22:32.714Z,1005.77
2018-05-16T04:24:25.492Z,1005.78
2018-05-16T04:25:25.408Z,1005.77
2018-05-16T04:27:18.643Z,1005.80
2018-05-16T04:28:18.544Z,1005.84
2018-05-16T04:30:11.537Z,1005.85
2018-05-16T04:31:11.573Z,1005.87
2018-05-16T04:33:04.734Z,1005.89
2018-05-16T04:34:04.601Z,1005.90
2018-05-16T04:35:57.428Z,1005.87
2018-05-16T04:36:57.380Z,1005.93
2018-05-16T04:38:50.383Z,1005.91
2018-05-16T04:39:50.379Z,1005.92
2018-05-16T04:41:43.304Z,1005.94
2018-05-16T04:42:43.249Z,1005.99
2018-05-16T04:44:36.341Z,1005.99
2018-05-16T04:45:36.107Z,1006.01
2018-05-16T04:47:29.078Z,1006.02
2018-05-16T04:48:29.066Z,1006.04
2018-05-16T04:50:22.049Z,1006.05
2018-05-16T04:51:22.026Z,1006.04
2018-05-16T04:53:14.821Z,1006.02
2018-05-16T04:54:14.770Z,1006.04
2018-05-16T04:56:07.779Z,1006.06
2018-05-16T04:57:07.589Z,1006.08
2018-05-16T04:59:00.654Z,1006.11
2018-05-16T05:00:00.595Z,1006.12
2018-05-16T05:01:53.559Z,1006.19
2018-05-16T05:02:53.535Z,1006.22
2018-05-16T05:04:46.451Z,1006.29
2018-05-16T05:05:46.385Z,1006.31
2018-05-16T05:07:39.298Z,1006.32
2018-05-16T05:08:39.190Z,1006.34
2018-05-16T05:10:31.995Z,1006.39
2018-05-16T05:11:31.945Z,1006.39
2018-05-16T05:13:24.929Z,1006.37
2018-05-16T05:14:24.903Z,1006.41
2018-05-16T05:16:17.730Z,1006.43
2018-05-16T05:17:17.681Z,1006.42
2018-05-16T05:19:10.738Z,1006.45
2018-05-16T05:20:10.501Z,1006.47
2018-05-16T05:22:03.599Z,1006.50
2018-05-16T05:23:03.531Z,1006.47
2018-05-16T05:24:56.511Z,1006.48
2018-05-16T05:25:56.471Z,1006.48
2018-05-16T05:27:49.557Z,1006.47
2018-05-16T05:28:49.397Z,1006.48
2018-05-16T05:30:42.385Z,1006.48
2018-05-16T05:31:42.342Z,1006.45
2018-05-16T05:33:35.299Z,1006.48
2018-05-16T05:34:35.347Z,1006.50
2018-05-16T05:36:28.469Z,1006.51
2018-05-16T05:37:28.377Z,1006.53
2018-05-16T05:39:21.355Z,1006.55
2018-05-16T05:40:21.313Z,1006.57
2018-05-16T05:42:14.322Z,1006.57
2018-05-16T05:43:14.306Z,1006.56
2018-05-16T05:45:07.313Z,1006.60
2018-05-16T05:46:07.076Z,1006.56
2018-05-16T05:48:00.116Z,1006.58
2018-05-16T05:49:00.089Z,1006.61
2018-05-16T05:50:53.075Z,1006.61
2018-05-16T05:51:53.011Z,1006.62
2018-05-16T05:53:45.845Z,1006.59
2018-05-16T05:54:45.811Z,1006.57
2018-05-16T05:56:38.798Z,1006.59
2018-05-16T05:57:38.621Z,1006.64
2018-05-16T05:59:31.610Z,1006.63
2018-05-16T06:00:31.556Z,1006.65
2018-05-16T06:02:24.540Z,1006.61
2018-05-16T06:03:24.492Z,1006.64
2018-05-16T06:05:17.308Z,1006.66
2018-05-16T06:06:17.271Z,1006.66
2018-05-16T06:08:10.308Z,1006.65
2018-05-16T06:09:10.258Z,1006.71
2018-05-16T06:11:03.111Z,1006.71
2018-05-16T06:12:03.043Z,1006.70
2018-05-16T06:13:56.037Z,1006.70
2018-05-16T06:14:55.996Z,1006.71
2018-05-16T06:16:49.097Z,1006.76
2018-05-16T06:17:48.933Z,1006.76
2018-05-16T06:19:41.956Z,1006.74
2018-05-16T06:20:41.867Z,1006.74
2018-05-16T06:22:34.856Z,1006.77
2018-05-16T06:23:34.810Z,1006.79
2018-05-16T06:25:27.893Z,1006.75
2018-05-16T06:26:27.738Z,1006.72
2018-05-16T06:28:20.801Z,1006.72
2018-05-16T06:29:20.741Z,1006.70
2018-05-16T06:31:13.753Z,1006.68
2018-05-16T06:32:13.730Z,1006.70
2018-05-16T06:34:06.931Z,1006.70
2018-05-16T06:35:06.858Z,1006.71
2018-05-16T06:36:59.840Z,1006.72
2018-05-16T06:37:59.798Z,1006.71
2018-05-16T06:39:52.637Z,1006.75
2018-05-16T06:40:52.582Z,1006.76
2018-05-16T06:42:45.417Z,1006.78
2018-05-16T06:43:45.365Z,1006.79
2018-05-16T06:45:38.354Z,1006.79
2018-05-16T06:46:38.156Z,1006.80
2018-05-16T06:48:31.170Z,1006.80
2018-05-16T06:49:31.111Z,1006.81
2018-05-16T06:51:23.931Z,1006.86
2018-05-16T06:52:23.898Z,1006.90
2018-05-16T06:54:17.162Z,1006.87
2018-05-16T06:55:17.060Z,1006.87
2018-05-16T06:57:10.056Z,1006.89
2018-05-16T06:58:10.008Z,1006.88
2018-05-16T07:00:03.035Z,1006.85
2018-05-16T07:01:03.000Z,1006.86
2018-05-16T07:02:55.973Z,1006.83
2018-05-16T07:03:55.916Z,1006.81
2018-05-16T07:05:48.834Z,1006.81
2018-05-16T07:06:48.797Z,1006.80
2018-05-16T07:08:41.783Z,1006.78
2018-05-16T07:09:41.767Z,1006.80
2018-05-16T07:11:34.889Z,1006.85
2018-05-16T07:12:34.823Z,1006.85
2018-05-16T07:14:27.821Z,1006.88
2018-05-16T07:15:27.813Z,1006.90
2018-05-16T07:17:20.958Z,1006.93
2018-05-16T07:18:20.927Z,1006.96
2018-05-16T07:20:13.943Z,1006.96
2018-05-16T07:21:13.899Z,1006.99
2018-05-16T07:23:06.863Z,1007.02
2018-05-16T07:24:06.834Z,1007.03
2018-05-16T07:26:00.000Z,1007.00
2018-05-16T07:26:59.783Z,1007.03
2018-05-16T07:28:52.613Z,1007.06
2018-05-16T07:29:52.557Z,1007.02
2018-05-16T07:31:45.527Z,1006.99
2018-05-16T07:32:45.506Z,1007.02
2018-05-16T07:34:38.818Z,1007.00
2018-05-16T07:35:38.634Z,1006.98
2018-05-16T07:37:31.632Z,1006.98
2018-05-16T07:38:31.596Z,1006.99
2018-05-16T07:40:24.564Z,1007.02
2018-05-16T07:41:24.527Z,1007.02
2018-05-16T07:43:17.728Z,1007.08
2018-05-16T07:44:17.438Z,1007.10
2018-05-16T07:46:10.336Z,1007.11
2018-05-16T07:47:10.229Z,1007.15
2018-05-16T07:49:03.251Z,1007.14
2018-05-16T07:50:03.342Z,1007.12
2018-05-16T07:51:56.553Z,1007.12
2018-05-16T07:52:56.328Z,1007.13
2018-05-16T07:54:49.236Z,1007.15
2018-05-16T07:55:49.112Z,1007.15
2018-05-16T07:57:42.134Z,1007.18
2018-05-16T07:58:42.083Z,1007.19
2018-05-16T08:00:35.120Z,1007.25
2018-05-16T08:01:35.102Z,1007.23
2018-05-16T08:03:28.106Z,1007.25
2018-05-16T08:04:28.057Z,1007.24
2018-05-16T08:06:20.895Z,1007.25
2018-05-16T08:07:20.838Z,1007.26
2018-05-16T08:09:14.246Z,1007.29
2018-05-16T08:10:14.129Z,1007.27
2018-05-16T08:12:07.142Z,1007.32
2018-05-16T08:13:07.089Z,1007.26
2018-05-16T08:15:00.504Z,1007.24
2018-05-16T08:16:00.451Z,1007.27
2018-05-16T08:17:53.468Z,1007.26
2018-05-16T08:18:53.409Z,1007.31
2018-05-16T08:20:46.595Z,1007.31
2018-05-16T08:21:46.603Z,1007.29
2018-05-16T08:23:39.397Z,1007.30
2018-05-16T08:24:39.343Z,1007.34
2018-05-16T08:26:32.382Z,1007.36
2018-05-16T08:27:32.322Z,1007.39
2018-05-16T08:29:25.504Z,1007.39
2018-05-16T08:30:25.458Z,1007.37
2018-05-16T08:32:18.459Z,1007.35
2018-05-16T08:33:18.416Z,1007.40
2018-05-16T08:35:11.391Z,1007.40
2018-05-16T08:36:11.363Z,1007.38
2018-05-16T08:38:04.294Z,1007.40
2018-05-16T08:39:04.250Z,1007.44
2018-05-16T08:40:57.260Z,1007.48
2018-05-16T08:41:57.295Z,1007.50
2018-05-16T08:43:50.271Z,1007.47
2018-05-16T08:44:50.219Z,1007.49
2018-05-16T08:46:43.051Z,1007.46
2018-05-16T08:47:43.019Z,1007.45
2018-05-16T08:49:36.016Z,1007.44
2018-05-16T08:50:35.975Z,1007.46
2018-05-16T08:52:28.945Z,1007.46
2018-05-16T08:53:28.998Z,1007.46
2018-05-16T08:55:21.743Z,1007.53
2018-05-16T08:56:21.705Z,1007.54
2018-05-16T08:58:14.739Z,1007.53
2018-05-16T08:59:14.497Z,1007.53
2018-05-16T09:01:07.725Z,1007.56
2018-05-16T09:02:07.606Z,1007.56
2018-05-16T09:04:01.050Z,1007.50
2018-05-16T09:05:00.783Z,1007.53
2018-05-16T09:06:53.809Z,1007.57
2018-05-16T09:07:53.784Z,1007.57
2018-05-16T09:09:46.830Z,1007.59
2018-05-16T09:10:46.760Z,1007.62
2018-05-16T09:12:39.609Z,1007.61
2018-05-16T09:13:39.579Z,1007.59
2018-05-16T09:15:32.596Z,1007.56
2018-05-16T09:16:32.560Z,1007.60
2018-05-16T09:18:25.536Z,1007.61
2018-05-16T09:19:25.520Z,1007.65
2018-05-16T09:21:18.731Z,1007.77
2018-05-16T09:22:18.688Z,1007.78
2018-05-16T09:24:11.696Z,1007.69
2018-05-16T09:25:11.804Z,1007.69
2018-05-16T09:27:04.924Z,1007.73
2018-05-16T09:28:04.789Z,1007.67
2018-05-16T09:29:57.822Z,1007.66
2018-05-16T09:30:57.770Z,1007.69
2018-05-16T09:32:50.761Z,1007.64
2018-05-16T09:33:50.732Z,1007.65
2018-05-16T09:35:43.787Z,1007.66
2018-05-16T09:36:43.571Z,1007.56
2018-05-16T09:38:36.688Z,1007.70
2018-05-16T09:39:36.657Z,1007.72
2018-05-16T09:41:29.649Z,1007.67
2018-05-16T09:42:29.595Z,1007.68
2018-05-16T09:44:22.666Z,1007.66
2018-05-16T09:45:22.599Z,1007.69
2018-05-16T09:47:15.600Z,1007.76
2018-05-16T09:48:15.540Z,1007.78
2018-05-16T09:50:08.811Z,1007.82
2018-05-16T09:51:08.682Z,1007.86
2018-05-16T09:53:01.689Z,1007.99
2018-05-16T09:54:01.636Z,1008.04
2018-05-16T09:55:54.659Z,1008.09
2018-05-16T09:56:54.623Z,1008.01
2018-05-16T09:58:47.431Z,1007.71
2018-05-16T09:59:47.406Z,1007.80
2018-05-16T10:01:40.423Z,1007.84
2018-05-16T10:02:40.402Z,1007.91
2018-05-16T10:04:33.412Z,1008.18
2018-05-16T10:05:33.385Z,1007.89
2018-05-16T10:07:26.615Z,1007.83
2018-05-16T10:08:26.545Z,1007.72
2018-05-16T10:10:19.532Z,1007.97
2018-05-16T10:11:19.612Z,1007.78
2018-05-16T10:13:12.851Z,1007.68
2018-05-16T10:14:12.705Z,1007.99
2018-05-16T10:16:05.561Z,1008.07
2018-05-16T10:17:05.617Z,1008.07
2018-05-16T10:18:58.463Z,1007.83
2018-05-16T10:19:58.496Z,1007.86
2018-05-16T10:21:51.852Z,1008.06
2018-05-16T10:22:51.785Z,1007.82
2018-05-16T10:24:44.625Z,1007.84
2018-05-16T10:25:44.732Z,1007.91
2018-05-16T10:27:37.899Z,1007.88
2018-05-16T10:28:37.751Z,1007.86
2018-05-16T10:30:30.573Z,1007.93
2018-05-16T10:31:30.568Z,1007.97
2018-05-16T10:33:23.586Z,1007.89
2018-05-16T10:34:23.589Z,1007.90
2018-05-16T10:36:16.354Z,1007.85
2018-05-16T10:37:16.307Z,1007.81
2018-05-16T10:39:09.151Z,1007.83
2018-05-16T10:40:09.106Z,1007.88
2018-05-16T10:42:02.112Z,1007.79
2018-05-16T10:43:02.082Z,1007.79
2018-05-16T10:44:55.102Z,1007.77
2018-05-16T10:45:55.097Z,1007.83
2018-05-16T10:47:48.270Z,1007.77
2018-05-16T10:48:48.213Z,1007.79
2018-05-16T10:50:41.207Z,1007.79
2018-05-16T10:51:41.251Z,1007.79
2018-05-16T10:53:34.514Z,1007.78
2018-05-16T10:54:34.329Z,1007.72
2018-05-16T10:56:27.272Z,1007.65
2018-05-16T10:57:27.339Z,1007.70
2018-05-16T10:59:20.099Z,1007.71
2018-05-16T11:00:20.103Z,1007.75
2018-05-16T11:02:13.302Z,1007.76
2018-05-16T11:03:13.232Z,1007.82
2018-05-16T11:05:06.240Z,1007.81
2018-05-16T11:06:06.191Z,1007.80
2018-05-16T11:07:59.190Z,1007.81
2018-05-16T11:08:59.133Z,1007.78
2018-05-16T11:10:52.193Z,1007.80
2018-05-16T11:11:52.177Z,1007.80
2018-05-16T11:13:45.172Z,1007.87
2018-05-16T11:14:45.193Z,1007.92
2018-05-16T11:16:38.133Z,1007.98
2018-05-16T11:17:38.098Z,1007.93
2018-05-16T11:19:31.118Z,1007.93
2018-05-16T11:20:31.087Z,1007.98
2018-05-16T11:22:24.064Z,1007.97
2018-05-16T11:23:24.024Z,1007.99
2018-05-16T11:25:17.300Z,1008.04
2018-05-16T11:26:17.178Z,1008.04
2018-05-16T11:28:10.183Z,1008.06
2018-05-16T11:29:10.274Z,1008.06
2018-05-16T11:31:03.138Z,1008.01
2018-05-16T11:32:03.089Z,1008.03
2018-05-16T11:33:56.132Z,1007.99
2018-05-16T11:34:55.896Z,1008.03
2018-05-16T11:36:48.888Z,1007.99
2018-05-16T11:37:48.863Z,1008.04
2018-05-16T11:39:41.905Z,1008.13
2018-05-16T11:40:41.862Z,1008.05
2018-05-16T11:42:34.713Z,1008.07
2018-05-16T11:43:34.667Z,1008.02
2018-05-16T11:45:27.673Z,1008.09
2018-05-16T11:46:27.658Z,1008.08
2018-05-16T11:48:20.603Z,1007.99
2018-05-16T11:49:20.567Z,1008.03
2018-05-16T11:51:13.807Z,1008.00
2018-05-16T11:52:13.724Z,1007.99
2018-05-16T11:54:06.738Z,1008.02
2018-05-16T11:55:06.801Z,1008.06
2018-05-16T11:57:00.093Z,1008.02
2018-05-16T11:57:59.986Z,1008.03
2018-05-16T11:59:53.025Z,1007.96
2018-05-16T12:00:52.942Z,1007.99
2018-05-16T12:02:46.347Z,1007.88
2018-05-16T12:03:46.158Z,1007.93
2018-05-16T12:05:39.019Z,1007.95
2018-05-16T12:06:38.943Z,1007.93
2018-05-16T12:08:31.924Z,1007.93
2018-05-16T12:09:31.974Z,1007.99
2018-05-16T12:11:25.153Z,1007.91
2018-05-16T12:12:25.038Z,1007.88
2018-05-16T12:14:18.056Z,1007.91
2018-05-16T12:15:18.037Z,1007.94
2018-05-16T12:17:11.013Z,1007.96
2018-05-16T12:18:10.960Z,1007.94
2018-05-16T12:20:03.999Z,1007.95
2018-05-16T12:21:03.951Z,1007.93
2018-05-16T12:22:56.797Z,1007.97
2018-05-16T12:23:56.758Z,1007.98
2018-05-16T12:25:49.565Z,1008.01
2018-05-16T12:26:49.559Z,1008.02
2018-05-16T12:28:42.893Z,1008.01
2018-05-16T12:29:42.673Z,1008.10
2018-05-16T12:31:35.693Z,1008.13
2018-05-16T12:32:35.638Z,1008.07
2018-05-16T12:34:28.629Z,1008.09
2018-05-16T12:35:28.595Z,1008.11
2018-05-16T12:37:21.643Z,1008.12
2018-05-16T12:38:21.475Z,1008.14
2018-05-16T12:40:14.446Z,1008.12
2018-05-16T12:41:14.439Z,1008.04
2018-05-16T12:43:07.432Z,1008.09
2018-05-16T12:44:07.371Z,1008.02
2018-05-16T12:46:00.205Z,1008.02
2018-05-16T12:47:00.190Z,1007.99
2018-05-16T12:48:53.197Z,1008.00
2018-05-16T12:49:52.984Z,1007.98
2018-05-16T12:51:46.142Z,1008.01
2018-05-16T12:52:46.125Z,1008.04
2018-05-16T12:54:39.392Z,1008.04
2018-05-16T12:55:39.308Z,1008.05
2018-05-16T12:57:32.212Z,1008.05
2018-05-16T12:58:32.182Z,1008.08
2018-05-16T13:00:25.200Z,1008.10
2018-05-16T13:01:25.233Z,1008.11
2018-05-16T13:03:17.978Z,1008.15
2018-05-16T13:04:17.925Z,1008.20
2018-05-16T13:06:10.812Z,1008.25
2018-05-16T13:07:10.779Z,1008.20
2018-05-16T13:09:03.794Z,1008.21
2018-05-16T13:10:03.720Z,1008.23
2018-05-16T13:11:57.138Z,1008.23
2018-05-16T13:12:57.225Z,1008.23
2018-05-16T13:14:51.801Z,1008.26
2018-05-16T13:15:51.083Z,1008.28
2018-05-16T13:17:44.351Z,1008.31
2018-05-16T13:18:44.185Z,1008.35
2018-05-16T13:20:37.032Z,1008.35
2018-05-16T13:21:37.105Z,1008.37
2018-05-16T13:23:29.984Z,1008.44
2018-05-16T13:24:30.047Z,1008.43
2018-05-16T13:26:23.815Z,1008.43
2018-05-16T13:27:23.763Z,1008.37
2018-05-16T13:29:16.841Z,1008.40
2018-05-16T13:30:16.787Z,1008.43
2018-05-16T13:32:09.786Z,1008.41
2018-05-16T13:33:09.870Z,1008.43
2018-05-16T13:35:02.603Z,1008.45
2018-05-16T13:36:02.532Z,1008.46
2018-05-16T13:37:55.651Z,1008.52
2018-05-16T13:38:55.655Z,1008.49
2018-05-16T13:40:48.464Z,1008.49
2018-05-16T13:41:48.413Z,1008.50
2018-05-16T13:43:41.433Z,1008.46
2018-05-16T13:44:41.382Z,1008.45
2018-05-16T13:46:34.503Z,1008.45
2018-05-16T13:47:34.256Z,1008.48
2018-05-16T13:49:27.098Z,1008.54
2018-05-16T13:50:27.064Z,1008.55
2018-05-16T13:52:20.040Z,1008.59
2018-05-16T13:53:19.992Z,1008.58
2018-05-16T13:55:12.956Z,1008.55
2018-05-16T13:56:12.937Z,1008.56
2018-05-16T13:58:05.830Z,1008.47
2018-05-16T13:59:05.726Z,1008.52
2018-05-16T14:00:58.602Z,1008.47
2018-05-16T14:01:58.565Z,1008.43
2018-05-16T14:03:51.465Z,1008.41
2018-05-16T14:04:51.448Z,1008.36
2018-05-16T14:06:44.419Z,1008.37
2018-05-16T14:07:44.376Z,1008.37
2018-05-16T14:09:37.268Z,1008.37
2018-05-16T14:10:37.250Z,1008.40
2018-05-16T14:12:30.266Z,1008.34
2018-05-16T14:13:30.197Z,1008.34
2018-05-16T14:15:23.135Z,1008.23
2018-05-16T14:16:23.110Z,1008.28
2018-05-16T14:18:16.307Z,1008.28
2018-05-16T14:19:16.167Z,1008.26
2018-05-16T14:21:08.986Z,1008.27
2018-05-16T14:22:08.961Z,1008.28
2018-05-16T14:24:01.950Z,1008.28
2018-05-16T14:25:01.890Z,1008.26
2018-05-16T14:26:55.150Z,1008.21
2018-05-16T14:27:54.979Z,1008.26
2018-05-16T14:29:48.012Z,1008.21
2018-05-16T14:30:47.937Z,1008.15
2018-05-16T14:32:40.915Z,1008.13
2018-05-16T14:33:40.892Z,1008.14
2018-05-16T14:35:33.737Z,1008.12
2018-05-16T14:36:33.664Z,1008.13
2018-05-16T14:38:26.650Z,1008.16
2018-05-16T14:39:26.528Z,1008.15
2018-05-16T14:41:19.512Z,1008.11
2018-05-16T14:42:19.457Z,1008.18
2018-05-16T14:44:12.461Z,1008.15
2018-05-16T14:45:12.408Z,1008.12
2018-05-16T14:47:05.217Z,1008.08
2018-05-16T14:48:05.197Z,1008.09
2018-05-16T14:49:58.188Z,1008.10
2018-05-16T14:50:58.152Z,1008.09
2018-05-16T14:52:51.138Z,1008.06
2018-05-16T14:53:51.110Z,1008.02
2018-05-16T14:55:43.952Z,1008.02
2018-05-16T14:56:43.903Z,1007.99
2018-05-16T14:58:36.733Z,1007.95
2018-05-16T14:59:36.750Z,1007.93
2018-05-16T15:01:29.701Z,1007.95
2018-05-16T15:02:29.646Z,1007.95
2018-05-16T15:04:22.882Z,1007.94
2018-05-16T15:05:22.819Z,1007.92
2018-05-16T15:07:15.878Z,1007.94
2018-05-16T15:08:15.851Z,1007.94
2018-05-16T15:10:08.872Z,1007.92
2018-05-16T15:11:08.805Z,1007.96
2018-05-16T15:13:02.008Z,1007.93
2018-05-16T15:14:01.952Z,1007.94
2018-05-16T15:15:54.938Z,1007.93
2018-05-16T15:16:54.884Z,1007.95
2018-05-16T15:18:47.852Z,1007.91
2018-05-16T15:19:47.824Z,1007.94
2018-05-16T15:21:40.663Z,1007.88
2018-05-16T15:22:40.598Z,1007.90
2018-05-16T15:24:33.628Z,1007.88
2018-05-16T15:25:33.604Z,1007.84
2018-05-16T15:27:26.685Z,1007.82
2018-05-16T15:28:26.590Z,1007.81
2018-05-16T15:30:19.817Z,1007.80
2018-05-16T15:31:19.698Z,1007.80
2018-05-16T15:33:12.502Z,1007.79
2018-05-16T15:34:12.474Z,1007.83
2018-05-16T15:36:05.485Z,1007.78
2018-05-16T15:37:05.489Z,1007.71
2018-05-16T15:38:58.643Z,1007.72
2018-05-16T15:39:58.552Z,1007.68
2018-05-16T15:41:51.592Z,1007.66
2018-05-16T15:42:51.627Z,1007.65
2018-05-16T15:44:44.489Z,1007.65
2018-05-16T15:45:44.463Z,1007.63
2018-05-16T15:47:37.357Z,1007.59
2018-05-16T15:48:37.272Z,1007.58
2018-05-16T15:50:30.264Z,1007.50
2018-05-16T15:51:30.213Z,1007.52
2018-05-16T15:53:23.198Z,1007.50
2018-05-16T15:54:23.178Z,1007.49
2018-05-16T15:56:16.628Z,1007.50
2018-05-16T15:57:16.265Z,1007.50
2018-05-16T15:59:09.255Z,1007.50
2018-05-16T16:00:09.248Z,1007.49
2018-05-16T16:02:02.052Z,1007.46
2018-05-16T16:03:02.003Z,1007.44
2018-05-16T16:04:55.213Z,1007.40
2018-05-16T16:05:55.152Z,1007.39
2018-05-16T16:07:48.171Z,1007.33
2018-05-16T16:08:48.256Z,1007.30
2018-05-16T16:10:40.934Z,1007.26
2018-05-16T16:11:40.942Z,1007.34
2018-05-16T16:13:34.009Z,1007.28
2018-05-16T16:14:33.828Z,1007.27
2018-05-16T16:16:26.855Z,1007.33
2018-05-16T16:17:26.813Z,1007.29
2018-05-16T16:19:19.882Z,1007.22
2018-05-16T16:20:19.816Z,1007.19
2018-05-16T16:22:12.912Z,1007.19
2018-05-16T16:23:12.778Z,1007.12
2018-05-16T16:25:06.696Z,1007.13
2018-05-16T16:26:06.584Z,1007.16
2018-05-16T16:27:59.572Z,1007.24
2018-05-16T16:28:59.646Z,1007.33
2018-05-16T16:30:52.952Z,1007.38
2018-05-16T16:31:52.686Z,1007.42
2018-05-16T16:33:46.591Z,1007.47
2018-05-16T16:34:46.588Z,1007.55
2018-05-16T16:36:39.875Z,1007.56
2018-05-16T16:37:39.821Z,1007.63
2018-05-16T16:39:33.293Z,1007.68
2018-05-16T16:40:32.837Z,1007.68
2018-05-16T16:42:26.220Z,1007.75
2018-05-16T16:43:26.114Z,1007.81
2018-05-16T16:45:19.866Z,1007.85
2018-05-16T16:46:19.822Z,1007.87
2018-05-16T16:48:12.893Z,1007.93
2018-05-16T16:49:12.858Z,1007.94
2018-05-16T16:51:07.035Z,1008.01
2018-05-16T16:52:06.819Z,1008.05
2018-05-16T16:53:59.910Z,1008.06
2018-05-16T16:54:59.826Z,1008.07
2018-05-16T16:56:52.813Z,1008.12
2018-05-16T16:57:52.791Z,1008.09
2018-05-16T16:59:45.736Z,1008.09
2018-05-16T17:00:45.607Z,1008.10
2018-05-16T17:02:38.589Z,1008.02
2018-05-16T17:03:38.582Z,1007.99
2018-05-16T17:05:31.589Z,1007.99
2018-05-16T17:06:31.545Z,1008.01
2018-05-16T17:08:24.764Z,1008.03
2018-05-16T17:09:24.735Z,1008.06
2018-05-16T17:11:17.735Z,1008.02
2018-05-16T17:12:17.776Z,1008.02
2018-05-16T17:14:10.915Z,1007.98
2018-05-16T17:15:10.871Z,1008.05
2018-05-16T17:17:04.728Z,1008.09
2018-05-16T17:18:04.655Z,1008.14
2018-05-16T17:19:58.576Z,1008.13
2018-05-16T17:20:57.645Z,1008.15
2018-05-16T17:22:50.849Z,1008.11
2018-05-16T17:23:50.764Z,1008.03
2018-05-16T17:25:43.844Z,1007.77